Simmons Army Air Field
KFBG : rendu visible

Aérodrome :











RETROUVEZ-NOUS SUR...

 
LOGIN :

S'inscrire | Disclaimer

   EN    FR    IT 

 









Légende :    VFR   VFR Marginal   IFR   IFR Intensif   IFR Très Intensif
Visi : 
Plafond : 
>= 8 km
>= 3000ft
5 à 8 km
1000 à 3000 ft
1500m à 5 km
500 à 1000 ft
800 à 1500m
200 à 500 ft
< 800m
< 200 ft
Symboles :   Orages  Brouillard  Fortes neiges  Fortes précipitations  Vent > 20 kt






- Altitude de l'aérodrome : 244 ft


KFBG - Simmons Army Air Field

DERNIER METAR :
  • 170956Z AUTO 01011G18KT 10SM OVC021 06/01 A3001 RMK AO2 SLP166 T00610014 $

METARs EXPIRÉS :
  • 170856Z AUTO 02012G19KT 10SM OVC022 06/01 A3002 RMK AO2 SLP169 60000 T00630014 55004 $
  • 170756Z AUTO 02012G24KT 10SM OVC022 06/02 A3002 RMK AO2 SLP169 T00640017 $

TAF TAF KFBG
Valide du 17 à 02h jusqu'au 18 à 08h UTC


170200Z 1702/1808 02015G25KT 9999 BKN025 QNH2998INS
TEMPO 1702/1708 02020G35KT 530005
BECMG 1707/1708 01020G35KT 9999 OVC015 530005 QNH2992INS
BECMG 1716/1717 01020G35KT 9999 BKN030 530005 QNH2988INS
BECMG 1719/1720 36015G25KT 9999 BKN030 QNH2984INS TX10/1718Z TN05/1711Z



MET'MAP, la Météo Aéronautique d'un coup d'oeil ! - Copyright ORBIFLY Décembre 2007 - Disclaimer

ORBIFLY MET'MAP TEAM :

Programmation & Développement : Alexandra Zaïnal
Conception & Développement : Baudouin d'Aumeries
Co-Programmation & Développement : Marc-Olivier Méhu
Soutien technique & logistique : Manuel Goepfert

Contact : metmap@orbifly.com




SOURCES & CREDITS :

   NOAA       Earth
Advisory